Bethune, Canada
Current Conditions -  °F | °C
As of 9:42 PM on Monday 22 Dec 2014 (Local Time) from CYQR Reporting Station
Overcast Overcast  
Wind Chill:   Ceiling: 400
Heat Index: 21°   Visibility: 15mi
Dew Point: 19°   Wind: 14mph
Humidity: 93%   Direction: 320°NW
Pressure: 29.97"   Gusts: NA
Location:  50.7°N, 105.22°W
Report Text: CYQR 230342Z 32012KT 15SM OVC004 M06/M07 A2997 RMK ST8 SLP185
Loading
Personal Weather Stations






























Interactive Weather Map New forecast layout! Learn more

10-Day Weather Forecast

Advertisements
Track Severe Weather on mobile